createdAt,value
2023-12-05T00:02:11.491Z,99236.31
2023-12-05T00:04:38.709Z,99237.84
2023-12-05T00:07:05.662Z,99241.19
2023-12-05T00:09:32.562Z,99248.88
2023-12-05T00:11:59.177Z,99246.28
2023-12-05T00:14:26.341Z,99245.41
2023-12-05T00:16:52.959Z,99254.69
2023-12-05T00:19:19.592Z,99266.56
2023-12-05T00:21:46.457Z,99258.91
2023-12-05T00:24:13.190Z,99260.72
2023-12-05T00:26:39.827Z,99255.41
2023-12-05T00:29:06.456Z,99267.41
2023-12-05T00:31:33.075Z,99261.47
2023-12-05T00:34:00.494Z,99264.13
2023-12-05T00:36:27.206Z,99271.00
2023-12-05T00:38:53.852Z,99268.94
2023-12-05T00:41:20.409Z,99269.13
2023-12-05T00:43:47.447Z,99276.41
2023-12-05T00:46:14.152Z,99271.13
2023-12-05T00:48:40.839Z,99278.66
2023-12-05T00:51:07.829Z,99280.19
2023-12-05T00:53:34.468Z,99280.09
2023-12-05T00:56:01.672Z,99286.09
2023-12-05T00:58:28.318Z,99286.09
2023-12-05T01:00:54.933Z,99277.66
2023-12-05T01:03:22.267Z,99282.66
2023-12-05T01:05:49.295Z,99285.03
2023-12-05T01:08:16.004Z,99285.09
2023-12-05T01:10:42.748Z,99289.34
2023-12-05T01:13:09.371Z,99294.44
2023-12-05T01:15:36.678Z,99309.91
2023-12-05T01:18:07.140Z,99312.59
2023-12-05T01:20:34.548Z,99305.22
2023-12-05T01:23:02.009Z,99300.25
2023-12-05T01:25:28.642Z,99318.63
2023-12-05T01:27:56.394Z,99332.00
2023-12-05T01:30:23.070Z,99332.69
2023-12-05T01:32:49.755Z,99343.53
2023-12-05T01:35:17.744Z,99351.13
2023-12-05T01:37:44.413Z,99354.38
2023-12-05T01:40:11.258Z,99347.66
2023-12-05T01:42:38.961Z,99347.50
2023-12-05T01:45:06.584Z,99338.03
2023-12-05T01:47:42.667Z,99339.59
2023-12-05T01:50:22.917Z,99341.44
2023-12-05T01:52:53.457Z,99348.06
2023-12-05T01:55:22.018Z,99351.63
2023-12-05T01:57:49.812Z,99349.00
2023-12-05T02:00:17.470Z,99342.91
2023-12-05T02:02:44.597Z,99354.09
2023-12-05T02:05:11.901Z,99365.19
2023-12-05T02:07:38.751Z,99367.03
2023-12-05T02:10:07.535Z,99372.72
2023-12-05T02:12:34.665Z,99379.72
2023-12-05T02:15:01.363Z,99374.41
2023-12-05T02:17:43.703Z,99382.84
2023-12-05T02:20:22.344Z,99397.28
2023-12-05T02:23:18.097Z,99395.38
2023-12-05T02:26:10.086Z,99397.78
2023-12-05T02:28:38.418Z,99411.41
2023-12-05T02:31:07.106Z,99404.25
2023-12-05T02:33:34.811Z,99415.31
2023-12-05T02:36:10.349Z,99410.84
2023-12-05T02:39:09.157Z,99409.03
2023-12-05T02:41:38.263Z,99409.75
2023-12-05T02:44:13.208Z,99404.72
2023-12-05T02:46:42.117Z,99409.56
2023-12-05T02:49:09.803Z,99406.22
2023-12-05T02:51:36.906Z,99395.41
2023-12-05T02:54:08.182Z,99393.78
2023-12-05T02:56:37.133Z,99383.78
2023-12-05T02:59:04.725Z,99383.09
2023-12-05T03:01:38.455Z,99384.59
2023-12-05T03:04:05.218Z,99380.25
2023-12-05T03:06:32.206Z,99370.06
2023-12-05T03:09:02.470Z,99363.97
2023-12-05T03:11:29.424Z,99365.75
2023-12-05T03:13:56.165Z,99354.56
2023-12-05T03:16:22.819Z,99367.19
2023-12-05T03:18:49.692Z,99354.63
2023-12-05T03:21:19.053Z,99361.97
2023-12-05T03:23:45.941Z,99359.72
2023-12-05T03:26:23.640Z,99363.00
2023-12-05T03:28:51.287Z,99358.16
2023-12-05T03:31:18.829Z,99363.09
2023-12-05T03:33:46.005Z,99354.63
2023-12-05T03:36:13.851Z,99352.41
2023-12-05T03:38:41.192Z,99352.28
2023-12-05T03:41:09.763Z,99351.69
2023-12-05T03:43:36.570Z,99347.38
2023-12-05T03:46:03.311Z,99354.28
2023-12-05T03:48:30.132Z,99359.88
2023-12-05T03:50:56.875Z,99354.63
2023-12-05T03:53:23.752Z,99347.09
2023-12-05T03:55:50.355Z,99341.03
2023-12-05T03:58:17.565Z,99337.69
2023-12-05T04:00:44.372Z,99342.88
2023-12-05T04:03:11.507Z,99338.53
2023-12-05T04:05:40.060Z,99347.19
2023-12-05T04:08:07.390Z,99341.94
2023-12-05T04:10:34.131Z,99349.69
2023-12-05T04:13:00.773Z,99350.63
2023-12-05T04:15:27.566Z,99353.75
2023-12-05T04:17:54.231Z,99355.56
2023-12-05T04:20:22.639Z,99352.41
2023-12-05T04:22:49.263Z,99353.75
2023-12-05T04:25:17.137Z,99347.09
2023-12-05T04:27:44.178Z,99347.81
2023-12-05T04:30:11.524Z,99348.34
2023-12-05T04:32:38.136Z,99364.53
2023-12-05T04:35:05.237Z,99361.34
2023-12-05T04:37:31.786Z,99363.84
2023-12-05T04:39:58.373Z,99376.72
2023-12-05T04:42:25.065Z,99380.91
2023-12-05T04:44:51.785Z,99387.03
2023-12-05T04:47:18.364Z,99382.63
2023-12-05T04:49:45.454Z,99370.66
2023-12-05T04:52:13.818Z,99373.44
2023-12-05T04:54:40.602Z,99357.19
2023-12-05T04:57:07.193Z,99362.91
2023-12-05T04:59:33.760Z,99369.69
2023-12-05T05:02:00.524Z,99363.19
2023-12-05T05:04:27.615Z,99354.53
2023-12-05T05:06:54.464Z,99362.09
2023-12-05T05:09:21.142Z,99369.69
2023-12-05T05:11:47.790Z,99362.84
2023-12-05T05:14:15.030Z,99364.59
2023-12-05T05:16:41.645Z,99362.59
2023-12-05T05:19:08.499Z,99364.22
2023-12-05T05:21:35.567Z,99365.97
2023-12-05T05:24:02.204Z,99368.47
2023-12-05T05:26:28.849Z,99372.72
2023-12-05T05:28:57.656Z,99364.16
2023-12-05T05:31:24.250Z,99366.69
2023-12-05T05:33:50.984Z,99370.03
2023-12-05T05:36:17.862Z,99366.66
2023-12-05T05:38:44.995Z,99369.25
2023-12-05T05:41:11.689Z,99371.22
2023-12-05T05:43:38.245Z,99366.84
2023-12-05T05:46:05.190Z,99380.16
2023-12-05T05:48:32.061Z,99375.91
2023-12-05T05:50:58.734Z,99381.03
2023-12-05T05:53:25.326Z,99385.03
2023-12-05T05:55:51.967Z,99385.78
2023-12-05T05:58:19.030Z,99390.13
2023-12-05T06:00:46.223Z,99394.19
2023-12-05T06:03:12.985Z,99390.88
2023-12-05T06:05:39.724Z,99395.06
2023-12-05T06:08:06.369Z,99410.31
2023-12-05T06:10:32.976Z,99415.31
2023-12-05T06:12:59.715Z,99416.09
2023-12-05T06:15:26.293Z,99415.31
2023-12-05T06:17:53.033Z,99415.16
2023-12-05T06:20:20.164Z,99413.44
2023-12-05T06:22:46.745Z,99414.81
2023-12-05T06:25:13.368Z,99422.47
2023-12-05T06:27:39.998Z,99420.66
2023-12-05T06:30:13.594Z,99412.97
2023-12-05T06:32:48.119Z,99421.53
2023-12-05T06:35:15.059Z,99420.41
2023-12-05T06:37:41.717Z,99424.06
2023-12-05T06:40:09.113Z,99421.41
2023-12-05T06:42:36.334Z,99426.19
2023-12-05T06:45:03.966Z,99440.34
2023-12-05T06:47:31.775Z,99430.28
2023-12-05T06:50:02.802Z,99427.69
2023-12-05T06:52:29.628Z,99429.50
2023-12-05T06:54:56.474Z,99439.66
2023-12-05T06:57:23.725Z,99445.84
2023-12-05T06:59:51.061Z,99452.59
2023-12-05T07:02:18.381Z,99461.91
2023-12-05T07:04:45.279Z,99469.53
2023-12-05T07:07:12.225Z,99475.50
2023-12-05T07:09:39.053Z,99482.91
2023-12-05T07:12:06.254Z,99486.50
2023-12-05T07:14:36.409Z,99488.28
2023-12-05T07:17:03.687Z,99494.03
2023-12-05T07:19:30.565Z,99500.75
2023-12-05T07:21:57.287Z,99495.75
2023-12-05T07:24:24.286Z,99499.34
2023-12-05T07:26:51.099Z,99497.34
2023-12-05T07:29:17.768Z,99502.66
2023-12-05T07:31:44.723Z,99510.00
2023-12-05T07:34:11.486Z,99517.44
2023-12-05T07:36:42.530Z,99530.84
2023-12-05T07:39:16.575Z,99531.25
2023-12-05T07:41:43.204Z,99539.66
2023-12-05T07:44:11.735Z,99558.25
2023-12-05T07:46:42.243Z,99570.00
2023-12-05T07:49:09.520Z,99572.69
2023-12-05T07:54:05.266Z,99584.41
2023-12-05T07:56:32.306Z,99591.34
2023-12-05T07:58:59.015Z,99589.13
2023-12-05T08:01:25.849Z,99596.69
2023-12-05T08:03:52.727Z,99598.88
2023-12-05T08:06:20.080Z,99604.78
2023-12-05T08:08:46.830Z,99611.81
2023-12-05T08:11:13.511Z,99622.84
2023-12-05T08:13:40.190Z,99635.84
2023-12-05T08:16:07.132Z,99628.22
2023-12-05T08:18:33.838Z,99634.69
2023-12-05T08:21:00.649Z,99642.81
2023-12-05T08:23:27.402Z,99650.28
2023-12-05T08:25:53.958Z,99653.88
2023-12-05T08:28:20.584Z,99651.34
2023-12-05T08:30:47.298Z,99655.66
2023-12-05T08:33:15.341Z,99663.25
2023-12-05T08:35:42.155Z,99666.25
2023-12-05T08:38:08.794Z,99680.47
2023-12-05T08:40:35.548Z,99671.34
2023-12-05T08:43:04.296Z,99667.28
2023-12-05T08:45:30.964Z,99677.66
2023-12-05T08:47:57.647Z,99676.22
2023-12-05T08:50:26.783Z,99688.03
2023-12-05T08:52:53.500Z,99689.91
2023-12-05T08:55:20.446Z,99691.72
2023-12-05T08:57:47.067Z,99691.94
2023-12-05T09:00:14.144Z,99708.41
2023-12-05T09:02:40.758Z,99717.16
2023-12-05T09:05:07.821Z,99716.47
2023-12-05T09:07:34.730Z,99730.88
2023-12-05T09:10:02.266Z,99728.41
2023-12-05T09:12:29.107Z,99736.44
2023-12-05T09:14:56.708Z,99754.69
2023-12-05T09:17:23.447Z,99756.66
2023-12-05T09:19:52.126Z,99765.25
2023-12-05T09:22:19.096Z,99768.56
2023-12-05T09:24:47.005Z,99768.03
2023-12-05T09:27:13.898Z,99776.84
2023-12-05T09:29:49.879Z,99803.28
2023-12-05T09:32:18.584Z,99826.69
2023-12-05T09:34:45.973Z,99835.28
2023-12-05T09:37:13.222Z,99837.84
2023-12-05T09:39:40.930Z,99836.28
2023-12-05T09:42:12.100Z,99856.06
2023-12-05T09:44:45.359Z,99857.22
2023-12-05T09:47:15.376Z,99877.69
2023-12-05T09:49:43.227Z,99877.88
2023-12-05T09:52:10.006Z,99888.53
2023-12-05T09:54:37.324Z,99894.63
2023-12-05T09:57:05.135Z,99903.13
2023-12-05T09:59:31.856Z,99909.28
2023-12-05T10:02:03.756Z,99928.91
2023-12-05T10:04:36.831Z,99929.75
2023-12-05T10:07:04.319Z,99932.97
2023-12-05T10:09:32.729Z,99937.56
2023-12-05T10:11:59.493Z,99939.06
2023-12-05T10:14:27.703Z,99940.31
2023-12-05T10:16:55.999Z,99940.69
2023-12-05T10:19:23.355Z,99964.34
2023-12-05T10:21:51.994Z,99980.41
2023-12-05T10:24:19.149Z,99971.38
2023-12-05T10:26:49.611Z,99964.72
2023-12-05T10:29:17.406Z,99964.75
2023-12-05T10:31:44.352Z,99961.44
2023-12-05T10:34:11.176Z,99963.50
2023-12-05T10:36:37.988Z,99967.53
2023-12-05T10:39:06.450Z,99965.97
2023-12-05T10:41:33.011Z,99964.69
2023-12-05T10:44:01.078Z,99956.69
2023-12-05T10:46:28.467Z,99978.66
2023-12-05T10:48:57.358Z,99978.53
2023-12-05T10:51:30.118Z,99981.91
2023-12-05T10:53:57.422Z,99979.19
2023-12-05T10:56:25.069Z,99977.97
2023-12-05T10:58:54.269Z,99976.31
2023-12-05T11:01:23.047Z,99976.34
2023-12-05T11:03:51.742Z,99970.31
2023-12-05T11:06:18.953Z,99972.06
2023-12-05T11:08:46.060Z,99953.41
2023-12-05T11:11:14.411Z,99971.88
2023-12-05T11:13:42.762Z,99955.94
2023-12-05T11:16:28.719Z,99951.63
2023-12-05T11:19:09.505Z,99945.63
2023-12-05T11:22:03.982Z,99938.28
2023-12-05T11:24:33.404Z,99935.09
2023-12-05T11:27:18.519Z,99927.00
2023-12-05T11:30:16.320Z,99938.25
2023-12-05T11:32:55.101Z,99944.59
2023-12-05T11:35:53.794Z,99934.88
2023-12-05T11:38:23.440Z,99938.31
2023-12-05T11:41:12.714Z,99933.06
2023-12-05T11:43:46.937Z,99934.09
2023-12-05T11:46:17.310Z,99935.75
2023-12-05T11:48:44.129Z,99928.06
2023-12-05T11:51:13.579Z,99930.22
2023-12-05T11:53:41.065Z,99927.75
2023-12-05T11:56:18.977Z,99919.06
2023-12-05T11:58:45.683Z,99916.41
2023-12-05T12:01:16.286Z,99924.00
2023-12-05T12:03:54.711Z,99928.28
2023-12-05T12:06:24.305Z,99918.84
2023-12-05T12:08:57.641Z,99923.91
2023-12-05T12:11:24.595Z,99937.53
2023-12-05T12:13:51.854Z,99930.69
2023-12-05T12:16:20.403Z,99933.44
2023-12-05T12:18:53.506Z,99924.44
2023-12-05T12:21:23.624Z,99921.44
2023-12-05T12:23:55.903Z,99924.09
2023-12-05T12:26:22.535Z,99925.34
2023-12-05T12:28:50.678Z,99928.13
2023-12-05T12:31:27.209Z,99926.22
2023-12-05T12:33:54.940Z,99918.78
2023-12-05T12:36:23.374Z,99926.31
2023-12-05T12:38:51.424Z,99924.88
2023-12-05T12:41:18.427Z,99917.03
2023-12-05T12:43:45.145Z,99909.75
2023-12-05T12:46:11.696Z,99918.75
2023-12-05T12:48:41.087Z,99905.75
2023-12-05T12:51:08.243Z,99912.00
2023-12-05T12:53:36.451Z,99920.09
2023-12-05T12:56:07.821Z,99920.66
2023-12-05T12:58:35.648Z,99934.44
2023-12-05T13:01:02.590Z,99919.13
2023-12-05T13:03:29.585Z,99928.56
2023-12-05T13:05:56.723Z,99914.00
2023-12-05T13:08:23.380Z,99906.84
2023-12-05T13:10:50.166Z,99917.25
2023-12-05T13:13:17.745Z,99920.78
2023-12-05T13:15:45.506Z,99919.28
2023-12-05T13:18:12.607Z,99921.09
2023-12-05T13:20:50.415Z,99916.53
2023-12-05T13:23:18.426Z,99919.09
2023-12-05T13:25:46.393Z,99922.50
2023-12-05T13:28:14.668Z,99921.66
2023-12-05T13:30:42.886Z,99917.09
2023-12-05T13:33:12.984Z,99923.44
2023-12-05T13:35:40.664Z,99920.06
2023-12-05T13:38:08.878Z,99907.91
2023-12-05T13:40:37.345Z,99870.50
2023-12-05T13:43:05.218Z,99868.72
2023-12-05T13:45:32.024Z,99863.75
2023-12-05T13:47:58.679Z,99850.00
2023-12-05T13:50:26.955Z,99841.56
2023-12-05T13:52:53.613Z,99829.22
2023-12-05T13:55:20.233Z,99819.78
2023-12-05T13:57:46.850Z,99823.41
2023-12-05T14:00:14.254Z,99832.88
2023-12-05T14:02:40.842Z,99832.75
2023-12-05T14:05:09.010Z,99843.03
2023-12-05T14:07:36.493Z,99849.16
2023-12-05T14:10:03.404Z,99846.78
2023-12-05T14:12:30.053Z,99852.91
2023-12-05T14:14:56.736Z,99858.88
2023-12-05T14:17:23.370Z,99865.66
2023-12-05T14:19:49.935Z,99864.91
2023-12-05T14:22:17.974Z,99865.97
2023-12-05T14:24:44.892Z,99861.78
2023-12-05T14:27:11.491Z,99870.31
2023-12-05T14:29:38.186Z,99879.75
2023-12-05T14:32:05.485Z,99879.09
2023-12-05T14:34:32.147Z,99874.69
2023-12-05T14:36:58.885Z,99877.28
2023-12-05T14:39:25.674Z,99870.56
2023-12-05T14:41:52.783Z,99875.81
2023-12-05T14:44:19.515Z,99882.03
2023-12-05T14:46:46.154Z,99883.22
2023-12-05T14:49:13.964Z,99876.13
2023-12-05T14:51:40.976Z,99883.94
2023-12-05T14:54:07.549Z,99877.81
2023-12-05T14:56:34.122Z,99880.94
2023-12-05T14:59:00.783Z,99882.53
2023-12-05T15:01:27.546Z,99894.63
2023-12-05T15:03:54.370Z,99888.63
2023-12-05T15:06:21.277Z,99876.06
2023-12-05T15:08:48.464Z,99855.09
2023-12-05T15:11:16.302Z,99815.88
2023-12-05T15:13:43.071Z,99758.28
2023-12-05T15:16:09.944Z,99706.00
2023-12-05T15:18:37.361Z,99679.59
2023-12-05T15:21:04.691Z,99651.31
2023-12-05T15:23:31.367Z,99610.38
2023-12-05T15:25:59.538Z,99595.88
2023-12-05T15:28:29.086Z,99586.50
2023-12-05T15:30:56.959Z,99571.25
2023-12-05T15:33:23.696Z,99577.31
2023-12-05T15:35:50.939Z,99577.38
2023-12-05T15:38:17.563Z,99584.25
2023-12-05T15:40:45.078Z,99592.56
2023-12-05T15:43:11.965Z,99610.28
2023-12-05T15:45:38.905Z,99614.44
2023-12-05T15:48:07.714Z,99622.84
2023-12-05T15:50:54.165Z,99640.75
2023-12-05T15:53:20.734Z,99633.91
2023-12-05T15:55:48.870Z,99638.09
2023-12-05T15:58:15.515Z,99628.78
2023-12-05T16:00:43.493Z,99634.50
2023-12-05T16:03:10.470Z,99632.88
2023-12-05T16:05:37.115Z,99635.44
2023-12-05T16:08:04.367Z,99620.16
2023-12-05T16:10:31.009Z,99617.41
2023-12-05T16:12:57.643Z,99604.75
2023-12-05T16:15:25.073Z,99595.44
2023-12-05T16:17:51.750Z,99584.16
2023-12-05T16:20:18.418Z,99566.25
2023-12-05T16:22:45.187Z,99566.94
2023-12-05T16:25:11.815Z,99567.16
2023-12-05T16:27:38.526Z,99555.94
2023-12-05T16:30:07.584Z,99568.06
2023-12-05T16:32:35.102Z,99562.16
2023-12-05T16:35:02.528Z,99565.84
2023-12-05T16:37:29.283Z,99561.44
2023-12-05T16:39:55.967Z,99558.00
2023-12-05T16:42:22.736Z,99569.84
2023-12-05T16:44:49.343Z,99557.00
2023-12-05T16:47:16.052Z,99564.47
2023-12-05T16:49:43.205Z,99556.13
2023-12-05T16:52:10.519Z,99544.19
2023-12-05T16:54:38.877Z,99547.63
2023-12-05T16:57:05.844Z,99550.03
2023-12-05T16:59:34.970Z,99559.34
2023-12-05T17:02:02.480Z,99555.19
2023-12-05T17:04:29.338Z,99545.03
2023-12-05T17:06:56.221Z,99555.06
2023-12-05T17:09:23.186Z,99537.31
2023-12-05T17:11:49.855Z,99542.38
2023-12-05T17:14:16.503Z,99546.44
2023-12-05T17:16:43.889Z,99533.69
2023-12-05T17:19:10.650Z,99526.88
2023-12-05T17:21:37.426Z,99535.28
2023-12-05T17:24:04.445Z,99544.63
2023-12-05T17:26:31.390Z,99535.34
2023-12-05T17:28:57.963Z,99540.75
2023-12-05T17:31:24.579Z,99534.66
2023-12-05T17:33:51.314Z,99549.81
2023-12-05T17:36:17.984Z,99543.91
2023-12-05T17:38:45.083Z,99548.94
2023-12-05T17:41:11.731Z,99550.75
2023-12-05T17:43:41.361Z,99546.50
2023-12-05T17:46:08.356Z,99551.34
2023-12-05T17:48:35.204Z,99552.72
2023-12-05T17:51:01.878Z,99539.88
2023-12-05T17:53:30.448Z,99521.91
2023-12-05T17:55:58.352Z,99517.50
2023-12-05T17:58:25.022Z,99510.59
2023-12-05T18:00:52.307Z,99504.66
2023-12-05T18:03:18.967Z,99503.94
2023-12-05T18:05:46.156Z,99514.91
2023-12-05T18:08:13.277Z,99505.56
2023-12-05T18:10:40.844Z,99517.50
2023-12-05T18:13:07.655Z,99522.53
2023-12-05T18:15:34.405Z,99534.41
2023-12-05T18:18:01.178Z,99545.50
2023-12-05T18:20:28.011Z,99547.16
2023-12-05T18:22:54.717Z,99554.72
2023-12-05T18:25:23.431Z,99555.66
2023-12-05T18:27:53.374Z,99557.16
2023-12-05T18:30:20.392Z,99566.38
2023-12-05T18:32:48.286Z,99566.19
2023-12-05T18:35:15.065Z,99566.38
2023-12-05T18:37:42.012Z,99568.75
2023-12-05T18:40:09.398Z,99561.84
2023-12-05T18:42:36.108Z,99547.88
2023-12-05T18:45:02.943Z,99549.59
2023-12-05T18:47:29.590Z,99545.22
2023-12-05T18:49:56.737Z,99546.03
2023-12-05T18:52:23.527Z,99543.31
2023-12-05T18:54:50.865Z,99539.09
2023-12-05T18:57:17.579Z,99540.53
2023-12-05T18:59:44.790Z,99532.00
2023-12-05T19:02:11.420Z,99531.88
2023-12-05T19:04:38.153Z,99527.69
2023-12-05T19:07:04.861Z,99526.75
2023-12-05T19:09:31.751Z,99524.16
2023-12-05T19:12:01.919Z,99522.50
2023-12-05T19:14:28.645Z,99516.47
2023-12-05T19:16:55.300Z,99521.56
2023-12-05T19:19:21.997Z,99525.75
2023-12-05T19:21:49.248Z,99517.25
2023-12-05T19:24:16.412Z,99525.63
2023-12-05T19:26:42.989Z,99520.53
2023-12-05T19:29:09.665Z,99517.94
2023-12-05T19:31:36.627Z,99513.72
2023-12-05T19:34:03.393Z,99519.47
2023-12-05T19:36:30.107Z,99517.69
2023-12-05T19:38:56.801Z,99522.75
2023-12-05T19:41:23.384Z,99514.25
2023-12-05T19:43:52.531Z,99509.00
2023-12-05T19:46:19.529Z,99508.97
2023-12-05T19:48:47.180Z,99506.63
2023-12-05T19:51:13.865Z,99509.72
2023-12-05T19:53:40.512Z,99516.53
2023-12-05T19:56:07.425Z,99529.28
2023-12-05T19:58:36.393Z,99518.28
2023-12-05T20:01:03.284Z,99514.75
2023-12-05T20:03:30.131Z,99514.84
2023-12-05T20:05:56.754Z,99516.47
2023-12-05T20:08:23.474Z,99506.41
2023-12-05T20:10:50.289Z,99510.00
2023-12-05T20:13:17.030Z,99508.00
2023-12-05T20:15:44.403Z,99507.00
2023-12-05T20:18:12.105Z,99507.75
2023-12-05T20:20:38.846Z,99506.09
2023-12-05T20:23:05.495Z,99497.47
2023-12-05T20:25:32.226Z,99510.91
2023-12-05T20:27:58.837Z,99500.50
2023-12-05T20:30:25.699Z,99496.38
2023-12-05T20:32:52.559Z,99503.25
2023-12-05T20:35:19.394Z,99491.72
2023-12-05T20:37:46.672Z,99500.16
2023-12-05T20:40:13.542Z,99505.78
2023-12-05T20:42:42.180Z,99507.25
2023-12-05T20:45:10.006Z,99507.25
2023-12-05T20:47:36.825Z,99498.97
2023-12-05T20:50:04.135Z,99492.47
2023-12-05T20:52:30.830Z,99484.00
2023-12-05T20:54:57.653Z,99483.09
2023-12-05T20:57:24.874Z,99488.25
2023-12-05T20:59:51.655Z,99490.75
2023-12-05T21:02:18.452Z,99494.06
2023-12-05T21:04:45.298Z,99494.69
2023-12-05T21:07:13.390Z,99501.91
2023-12-05T21:09:40.117Z,99495.81
2023-12-05T21:12:06.994Z,99491.63
2023-12-05T21:14:33.672Z,99486.88
2023-12-05T21:17:00.328Z,99492.16
2023-12-05T21:19:27.379Z,99491.97
2023-12-05T21:21:54.068Z,99494.31
2023-12-05T21:24:20.651Z,99490.16
2023-12-05T21:26:47.264Z,99496.91
2023-12-05T21:29:13.972Z,99500.38
2023-12-05T21:31:40.552Z,99496.31
2023-12-05T21:34:07.559Z,99495.59
2023-12-05T21:36:34.247Z,99498.69
2023-12-05T21:39:00.932Z,99498.69
2023-12-05T21:41:28.729Z,99491.00
2023-12-05T21:43:55.456Z,99491.88
2023-12-05T21:46:30.527Z,99488.56
2023-12-05T21:48:57.675Z,99488.25
2023-12-05T21:51:24.561Z,99498.53
2023-12-05T21:53:51.878Z,99498.63
2023-12-05T21:56:18.889Z,99498.63
2023-12-05T21:58:45.633Z,99496.03
2023-12-05T22:01:16.810Z,99495.94
2023-12-05T22:03:44.183Z,99494.41
2023-12-05T22:06:12.073Z,99496.09
2023-12-05T22:08:38.829Z,99502.13
2023-12-05T22:11:06.080Z,99500.19
2023-12-05T22:13:33.674Z,99504.34
2023-12-05T22:16:01.835Z,99500.94
2023-12-05T22:18:29.732Z,99499.00
2023-12-05T22:20:57.370Z,99496.34
2023-12-05T22:23:25.688Z,99491.84
2023-12-05T22:25:53.443Z,99489.19
2023-12-05T22:28:20.132Z,99484.09
2023-12-05T22:30:46.722Z,99491.59
2023-12-05T22:33:14.313Z,99492.44
2023-12-05T22:35:43.211Z,99495.66
2023-12-05T22:38:09.799Z,99492.22
2023-12-05T22:40:36.496Z,99494.88
2023-12-05T22:43:03.140Z,99497.47
2023-12-05T22:45:29.798Z,99506.09
2023-12-05T22:47:56.425Z,99504.47
2023-12-05T22:50:23.140Z,99496.63
2023-12-05T22:52:53.219Z,99498.34
2023-12-05T22:55:20.995Z,99497.31
2023-12-05T22:57:50.405Z,99490.53
2023-12-05T23:00:25.293Z,99488.56
2023-12-05T23:02:57.042Z,99482.56
2023-12-05T23:05:25.712Z,99483.47
2023-12-05T23:07:52.861Z,99479.13
2023-12-05T23:10:21.188Z,99478.09
2023-12-05T23:12:48.202Z,99484.75
2023-12-05T23:15:14.957Z,99486.50
2023-12-05T23:17:41.691Z,99477.25
2023-12-05T23:20:10.807Z,99478.75
2023-12-05T23:22:37.949Z,99474.50
2023-12-05T23:25:04.924Z,99476.06
2023-12-05T23:27:32.721Z,99475.22
2023-12-05T23:29:59.905Z,99464.22
2023-12-05T23:32:26.508Z,99462.72
2023-12-05T23:34:53.453Z,99461.09
2023-12-05T23:37:21.222Z,99473.25
2023-12-05T23:39:49.318Z,99464.47
2023-12-05T23:42:16.015Z,99467.59
2023-12-05T23:44:43.291Z,99460.69
2023-12-05T23:47:10.433Z,99465.72
2023-12-05T23:49:37.345Z,99455.69
2023-12-05T23:52:06.248Z,99457.50
2023-12-05T23:54:33.922Z,99458.03
2023-12-05T23:57:00.850Z,99456.25
2023-12-05T23:59:27.703Z,99453.63
